Terminal Aerodrome Forecast
Issued by NWS Greer, SC

Home | Current Version | Previous Version | Text Only | Print | Product List | Glossary On
Versions: 1 2 3 4 5 6 7 8 9 10 11 12 13 14
636
FTUS42 KGSP 242326
TAFGSP
TAF
KGSP 242326Z 2500/2524 03004KT P6SM SCT250
     FM251500 04009KT P6SM SCT250=

USA.gov is the U.S. government's official web portal to all federal, state and local government web resources and services.